Bauru, Brazil

9:38 PM BRT on August 30, 2014 (GMT -0300)
Bauru | Change Station
CLOSE
Current Station
Airport
Location: Bauru,
Elevation: 2018 ft
Nearby Weather Stations

Elev 2018 ft 22.35 °S, 49.05 °W | Updated 38 minutes ago

Clear
Clear
75 °F
Feels Like 75 °F
N
8
Wind Variable Wind from SSE

Today
High -- | Low -- °F
--% Chance of Precip.
Yesterday
High -- | Low -- °F
Precip. -- in
6:28 AM 6:05 PM
Waxing Crescent, 26% visible
Pressure 30.06 in
Visibility -9999.0 miles
Clouds
Dew Point 61 °F
Humidity 61%
Rainfall 0.00 in
Snow Depth Not available.
UV Not available.
Pollen Not available.
Air Quality Not available.
Flu Activity Not available.
METAR SBBU 310000Z 15007KT CAVOK 24/16 Q1018

More Conditions Fewer Conditions

Pressure 30.06 in
Visibility -9999.0 miles
Clouds
Dew Point 61 °F
Humidity 61%
Rainfall 0.00 in
Snow Depth Not available.
UV Not available.
Pollen Not available.
Air Quality Not available.
Flu Activity Not available.
METAR SBBU 310000Z 15007KT CAVOK 24/16 Q1018

More Conditions Fewer Conditions

10-Day Weather Forecast

Almanac

Astronomy

Aug. 30, 2014 Rise Set
Actual Time 6:28 AM BRT 6:05 PM BRT
Civil Twilight 6:05 AM BRT 6:28 PM BRT
Nautical Twilight 5:39 AM BRT 6:54 PM BRT
Astronomical Twilight 5:13 AM BRT 7:20 PM BRT
Moon 9:24 AM BRT (8/30) 10:28 PM BRT (8/30)
Length of Visible Light 12h 22m
Length of Day
11h 37m
Tomorrow will be 1m 11s longer.
Waxing Crescent, 26% of the Moon is Illuminated
Today
Waxing Crescent
Sep 2
First Quarter
Sep 8
Full
Sep 15
Last Quarter
Sep 24
New

Today's Extremes

Country Highs Country Lows

Community

WunderPhotos

Upload Photos

1,748,706 photos uploaded!

Nearby

Snow Depth

Not available.

Earthquake Activity

City Distance Mag. Time & Date
No recent earthquake activity has been reported nearby.
Minimum magnitude displayed is 2.5.

Coastal Water Temperatures

Place Temperature
No Stations Reporting

Nearby Weather Stations